JNU weather

Juneau International Airport
Juneau, Alaska, United States

Public forecast

Using degrees Fahrenheit for public forecast. Weather courtesy of forecast.io.

METAR (pilot weather report)

Retrieved 2019/05/23 02:53 UTC (15 minutes ago):

PAJN 230253Z 23009KT 10SM FEW045 FEW100 18/06 A3013

TAF (pilot weather forecast)

Forecast is more than 12 hours old.

Retrieved 2019/05/22 00:24 UTC (1 day ago):

TAF PAJN 222323Z 2300/2324 27010KT P6SM FEW045 FM230600 VRB03KT P6SM BKN120 FM231200 00000KT P6SM BKN040 OVC080 FM231400 VRB04KT P6SM -RA OVC040